sensor_id;sensor_type;location;lat;lon;timestamp;pressure;altitude;pressure_sealevel;temperature
15845;BMP180;50807;52.436;13.346;2022-11-06T00:00:26;101427.00;;;10.40
15845;BMP180;50807;52.436;13.346;2022-11-06T00:00:57;101436.00;;;10.40
15845;BMP180;50807;52.436;13.346;2022-11-06T00:01:29;101423.00;;;10.40
15845;BMP180;50807;52.436;13.346;2022-11-06T00:01:59;101423.00;;;10.40
15845;BMP180;50807;52.436;13.346;2022-11-06T00:02:30;101426.00;;;10.40
15845;BMP180;50807;52.436;13.346;2022-11-06T00:03:02;101424.00;;;10.40
15845;BMP180;50807;52.436;13.346;2022-11-06T00:03:34;101428.00;;;10.40
15845;BMP180;50807;52.436;13.346;2022-11-06T00:04:05;101420.00;;;10.40
15845;BMP180;50807;52.436;13.346;2022-11-06T00:04:37;101420.00;;;10.40
15845;BMP180;50807;52.436;13.346;2022-11-06T00:05:08;101420.00;;;10.50
15845;BMP180;50807;52.436;13.346;2022-11-06T00:05:58;101419.00;;;10.40
15845;BMP180;50807;52.436;13.346;2022-11-06T00:06:47;101432.00;;;10.30
15845;BMP180;50807;52.436;13.346;2022-11-06T00:07:18;101430.00;;;10.30
15845;BMP180;50807;52.436;13.346;2022-11-06T00:07:51;101422.00;;;10.30
15845;BMP180;50807;52.436;13.346;2022-11-06T00:08:54;101421.00;;;10.30
15845;BMP180;50807;52.436;13.346;2022-11-06T00:09:26;101425.00;;;10.30
15845;BMP180;50807;52.436;13.346;2022-11-06T00:09:57;101432.00;;;10.30
15845;BMP180;50807;52.436;13.346;2022-11-06T00:10:29;101410.00;;;10.30
15845;BMP180;50807;52.436;13.346;2022-11-06T00:11:09;101423.00;;;10.20
15845;BMP180;50807;52.436;13.346;2022-11-06T00:11:41;101416.00;;;10.30
15845;BMP180;50807;52.436;13.346;2022-11-06T00:12:13;101420.00;;;10.30
15845;BMP180;50807;52.436;13.346;2022-11-06T00:12:44;101414.00;;;10.30
15845;BMP180;50807;52.436;13.346;2022-11-06T00:13:15;101424.00;;;10.30
15845;BMP180;50807;52.436;13.346;2022-11-06T00:13:47;101425.00;;;10.30
15845;BMP180;50807;52.436;13.346;2022-11-06T00:14:19;101404.00;;;10.30
15845;BMP180;50807;52.436;13.346;2022-11-06T00:14:50;101438.00;;;10.30
15845;BMP180;50807;52.436;13.346;2022-11-06T00:15:22;101427.00;;;10.30
15845;BMP180;50807;52.436;13.346;2022-11-06T00:15:53;101427.00;;;10.30
15845;BMP180;50807;52.436;13.346;2022-11-06T00:16:24;101419.00;;;10.30
15845;BMP180;50807;52.436;13.346;2022-11-06T00:16:55;101423.00;;;10.30
15845;BMP180;50807;52.436;13.346;2022-11-06T00:17:26;101421.00;;;10.30
15845;BMP180;50807;52.436;13.346;2022-11-06T00:17:57;101421.00;;;10.20
15845;BMP180;50807;52.436;13.346;2022-11-06T00:18:28;101424.00;;;10.20
15845;BMP180;50807;52.436;13.346;2022-11-06T00:19:00;101423.00;;;10.20
15845;BMP180;50807;52.436;13.346;2022-11-06T00:19:31;101414.00;;;10.20
15845;BMP180;50807;52.436;13.346;2022-11-06T00:20:04;101413.00;;;10.20
15845;BMP180;50807;52.436;13.346;2022-11-06T00:20:35;101416.00;;;10.20
15845;BMP180;50807;52.436;13.346;2022-11-06T00:21:07;101425.00;;;10.20
15845;BMP180;50807;52.436;13.346;2022-11-06T00:21:40;101417.00;;;10.20
15845;BMP180;50807;52.436;13.346;2022-11-06T00:22:10;101413.00;;;10.20
15845;BMP180;50807;52.436;13.346;2022-11-06T00:22:41;101419.00;;;10.20
15845;BMP180;50807;52.436;13.346;2022-11-06T00:23:14;101419.00;;;10.20
15845;BMP180;50807;52.436;13.346;2022-11-06T00:23:46;101411.00;;;10.20
15845;BMP180;50807;52.436;13.346;2022-11-06T00:24:17;101424.00;;;10.20
15845;BMP180;50807;52.436;13.346;2022-11-06T00:24:49;101376.00;;;10.20
15845;BMP180;50807;52.436;13.346;2022-11-06T00:25:20;101415.00;;;10.20
15845;BMP180;50807;52.436;13.346;2022-11-06T00:25:51;101415.00;;;10.20
15845;BMP180;50807;52.436;13.346;2022-11-06T00:26:28;101413.00;;;10.10
15845;BMP180;50807;52.436;13.346;2022-11-06T00:26:59;101417.00;;;10.10
15845;BMP180;50807;52.436;13.346;2022-11-06T00:27:34;101411.00;;;10.10
15845;BMP180;50807;52.436;13.346;2022-11-06T00:28:05;101417.00;;;10.10
15845;BMP180;50807;52.436;13.346;2022-11-06T00:28:37;101415.00;;;10.20
15845;BMP180;50807;52.436;13.346;2022-11-06T00:29:12;101415.00;;;10.10
15845;BMP180;50807;52.436;13.346;2022-11-06T00:29:43;101421.00;;;10.20
15845;BMP180;50807;52.436;13.346;2022-11-06T00:30:14;101417.00;;;10.20
15845;BMP180;50807;52.436;13.346;2022-11-06T00:30:46;101411.00;;;10.20
15845;BMP180;50807;52.436;13.346;2022-11-06T00:31:20;101415.00;;;10.10
15845;BMP180;50807;52.436;13.346;2022-11-06T00:31:52;101418.00;;;10.10
15845;BMP180;50807;52.436;13.346;2022-11-06T00:32:22;101424.00;;;10.10
15845;BMP180;50807;52.436;13.346;2022-11-06T00:32:53;101412.00;;;10.10
15845;BMP180;50807;52.436;13.346;2022-11-06T00:33:25;101423.00;;;10.10
15845;BMP180;50807;52.436;13.346;2022-11-06T00:33:59;101412.00;;;10.10
15845;BMP180;50807;52.436;13.346;2022-11-06T00:34:30;101418.00;;;10.10
15845;BMP180;50807;52.436;13.346;2022-11-06T00:35:02;101416.00;;;10.10
15845;BMP180;50807;52.436;13.346;2022-11-06T00:35:33;101409.00;;;10.10
15845;BMP180;50807;52.436;13.346;2022-11-06T00:36:08;101411.00;;;10.00
15845;BMP180;50807;52.436;13.346;2022-11-06T00:36:40;101412.00;;;10.10
15845;BMP180;50807;52.436;13.346;2022-11-06T00:37:10;101417.00;;;10.10
15845;BMP180;50807;52.436;13.346;2022-11-06T00:37:42;101407.00;;;10.10
15845;BMP180;50807;52.436;13.346;2022-11-06T00:38:14;101408.00;;;10.10
15845;BMP180;50807;52.436;13.346;2022-11-06T00:38:49;101415.00;;;10.10
15845;BMP180;50807;52.436;13.346;2022-11-06T00:39:20;101413.00;;;10.00
15845;BMP180;50807;52.436;13.346;2022-11-06T00:39:52;101413.00;;;10.10
15845;BMP180;50807;52.436;13.346;2022-11-06T00:40:23;101414.00;;;10.10
15845;BMP180;50807;52.436;13.346;2022-11-06T00:40:54;101415.00;;;10.10
15845;BMP180;50807;52.436;13.346;2022-11-06T00:41:26;101412.00;;;10.10
15845;BMP180;50807;52.436;13.346;2022-11-06T00:41:57;101387.00;;;10.10
15845;BMP180;50807;52.436;13.346;2022-11-06T00:42:28;101426.00;;;10.10
15845;BMP180;50807;52.436;13.346;2022-11-06T00:43:00;101421.00;;;10.10
15845;BMP180;50807;52.436;13.346;2022-11-06T00:43:31;101421.00;;;10.10
15845;BMP180;50807;52.436;13.346;2022-11-06T00:44:03;101411.00;;;10.10
15845;BMP180;50807;52.436;13.346;2022-11-06T00:44:35;101416.00;;;10.10
15845;BMP180;50807;52.436;13.346;2022-11-06T00:45:08;101416.00;;;10.10
15845;BMP180;50807;52.436;13.346;2022-11-06T00:45:39;101417.00;;;10.10
15845;BMP180;50807;52.436;13.346;2022-11-06T00:46:13;101416.00;;;10.10
15845;BMP180;50807;52.436;13.346;2022-11-06T00:46:43;101425.00;;;10.10
15845;BMP180;50807;52.436;13.346;2022-11-06T00:47:14;101410.00;;;10.10
15845;BMP180;50807;52.436;13.346;2022-11-06T00:47:46;101417.00;;;10.10
15845;BMP180;50807;52.436;13.346;2022-11-06T00:48:17;101415.00;;;10.10
15845;BMP180;50807;52.436;13.346;2022-11-06T00:48:50;101417.00;;;10.00
15845;BMP180;50807;52.436;13.346;2022-11-06T00:49:21;101410.00;;;10.10
15845;BMP180;50807;52.436;13.346;2022-11-06T00:49:52;101419.00;;;10.10
15845;BMP180;50807;52.436;13.346;2022-11-06T00:50:24;101416.00;;;10.10
15845;BMP180;50807;52.436;13.346;2022-11-06T00:51:01;101423.00;;;10.00
15845;BMP180;50807;52.436;13.346;2022-11-06T00:51:35;101424.00;;;10.00
15845;BMP180;50807;52.436;13.346;2022-11-06T00:52:08;101405.00;;;10.00
15845;BMP180;50807;52.436;13.346;2022-11-06T00:52:39;101419.00;;;10.00
15845;BMP180;50807;52.436;13.346;2022-11-06T00:53:10;101415.00;;;10.00
15845;BMP180;50807;52.436;13.346;2022-11-06T00:53:44;101415.00;;;10.00
15845;BMP180;50807;52.436;13.346;2022-11-06T00:54:15;101419.00;;;10.00
15845;BMP180;50807;52.436;13.346;2022-11-06T00:54:46;101405.00;;;10.00
15845;BMP180;50807;52.436;13.346;2022-11-06T00:55:18;101410.00;;;10.10
15845;BMP180;50807;52.436;13.346;2022-11-06T00:55:49;101417.00;;;10.00
15845;BMP180;50807;52.436;13.346;2022-11-06T00:56:20;101426.00;;;10.00
15845;BMP180;50807;52.436;13.346;2022-11-06T00:56:52;101409.00;;;10.00
15845;BMP180;50807;52.436;13.346;2022-11-06T00:57:23;101391.00;;;10.00
15845;BMP180;50807;52.436;13.346;2022-11-06T00:57:54;101415.00;;;10.00
15845;BMP180;50807;52.436;13.346;2022-11-06T00:58:27;101417.00;;;10.00
15845;BMP180;50807;52.436;13.346;2022-11-06T00:58:59;101420.00;;;10.00
15845;BMP180;50807;52.436;13.346;2022-11-06T00:59:30;101411.00;;;10.00
15845;BMP180;50807;52.436;13.346;2022-11-06T01:00:04;101415.00;;;10.00
15845;BMP180;50807;52.436;13.346;2022-11-06T01:00:34;101419.00;;;10.00
15845;BMP180;50807;52.436;13.346;2022-11-06T01:01:09;101413.00;;;10.00
15845;BMP180;50807;52.436;13.346;2022-11-06T01:01:42;101414.00;;;10.00
15845;BMP180;50807;52.436;13.346;2022-11-06T01:02:13;101419.00;;;10.00
15845;BMP180;50807;52.436;13.346;2022-11-06T01:02:48;101412.00;;;10.00
15845;BMP180;50807;52.436;13.346;2022-11-06T01:03:19;101408.00;;;10.00
15845;BMP180;50807;52.436;13.346;2022-11-06T01:03:53;101416.00;;;10.00
15845;BMP180;50807;52.436;13.346;2022-11-06T01:04:26;101415.00;;;10.00
15845;BMP180;50807;52.436;13.346;2022-11-06T01:04:56;101413.00;;;10.00
15845;BMP180;50807;52.436;13.346;2022-11-06T01:05:27;101415.00;;;10.00
15845;BMP180;50807;52.436;13.346;2022-11-06T01:06:05;101413.00;;;10.00
15845;BMP180;50807;52.436;13.346;2022-11-06T01:06:39;101401.00;;;10.00
15845;BMP180;50807;52.436;13.346;2022-11-06T01:07:10;101418.00;;;10.00
15845;BMP180;50807;52.436;13.346;2022-11-06T01:07:42;101419.00;;;10.00
15845;BMP180;50807;52.436;13.346;2022-11-06T01:08:13;101413.00;;;10.00
15845;BMP180;50807;52.436;13.346;2022-11-06T01:08:46;101419.00;;;10.00
15845;BMP180;50807;52.436;13.346;2022-11-06T01:09:21;101409.00;;;10.00
15845;BMP180;50807;52.436;13.346;2022-11-06T01:09:52;101419.00;;;10.00
15845;BMP180;50807;52.436;13.346;2022-11-06T01:10:24;101413.00;;;10.00
15845;BMP180;50807;52.436;13.346;2022-11-06T01:10:54;101413.00;;;10.00
15845;BMP180;50807;52.436;13.346;2022-11-06T01:11:28;101401.00;;;10.00
15845;BMP180;50807;52.436;13.346;2022-11-06T01:12:00;101416.00;;;10.00
15845;BMP180;50807;52.436;13.346;2022-11-06T01:12:32;101412.00;;;10.00
15845;BMP180;50807;52.436;13.346;2022-11-06T01:13:03;101416.00;;;10.00
15845;BMP180;50807;52.436;13.346;2022-11-06T01:13:35;101406.00;;;10.00
15845;BMP180;50807;52.436;13.346;2022-11-06T01:14:07;101405.00;;;10.00
15845;BMP180;50807;52.436;13.346;2022-11-06T01:14:40;101408.00;;;10.00
15845;BMP180;50807;52.436;13.346;2022-11-06T01:15:12;101409.00;;;10.00
15845;BMP180;50807;52.436;13.346;2022-11-06T01:15:43;101406.00;;;10.10
15845;BMP180;50807;52.436;13.346;2022-11-06T01:16:15;101412.00;;;10.10
15845;BMP180;50807;52.436;13.346;2022-11-06T01:16:47;101413.00;;;10.00
15845;BMP180;50807;52.436;13.346;2022-11-06T01:17:18;101412.00;;;10.00
15845;BMP180;50807;52.436;13.346;2022-11-06T01:17:49;101413.00;;;10.00
15845;BMP180;50807;52.436;13.346;2022-11-06T01:18:20;101407.00;;;10.10
15845;BMP180;50807;52.436;13.346;2022-11-06T01:18:54;101409.00;;;10.00
15845;BMP180;50807;52.436;13.346;2022-11-06T01:19:25;101402.00;;;10.00
15845;BMP180;50807;52.436;13.346;2022-11-06T01:19:57;101405.00;;;10.10
15845;BMP180;50807;52.436;13.346;2022-11-06T01:20:28;101408.00;;;10.10
15845;BMP180;50807;52.436;13.346;2022-11-06T01:21:04;101407.00;;;10.00
15845;BMP180;50807;52.436;13.346;2022-11-06T01:21:37;101409.00;;;10.00
15845;BMP180;50807;52.436;13.346;2022-11-06T01:22:09;101397.00;;;10.00
15845;BMP180;50807;52.436;13.346;2022-11-06T01:22:41;101395.00;;;10.00
15845;BMP180;50807;52.436;13.346;2022-11-06T01:23:11;101403.00;;;10.00
15845;BMP180;50807;52.436;13.346;2022-11-06T01:23:44;101402.00;;;10.00
15845;BMP180;50807;52.436;13.346;2022-11-06T01:24:20;101406.00;;;10.00
15845;BMP180;50807;52.436;13.346;2022-11-06T01:24:51;101400.00;;;10.00
15845;BMP180;50807;52.436;13.346;2022-11-06T01:25:23;101397.00;;;10.00
15845;BMP180;50807;52.436;13.346;2022-11-06T01:25:58;101395.00;;;10.00
15845;BMP180;50807;52.436;13.346;2022-11-06T01:26:30;101407.00;;;10.00
15845;BMP180;50807;52.436;13.346;2022-11-06T01:27:02;101402.00;;;10.00
15845;BMP180;50807;52.436;13.346;2022-11-06T01:27:33;101407.00;;;10.00
15845;BMP180;50807;52.436;13.346;2022-11-06T01:28:05;101408.00;;;10.00
15845;BMP180;50807;52.436;13.346;2022-11-06T01:28:36;101405.00;;;10.00
15845;BMP180;50807;52.436;13.346;2022-11-06T01:29:12;101392.00;;;10.00
15845;BMP180;50807;52.436;13.346;2022-11-06T01:29:44;101401.00;;;10.00
15845;BMP180;50807;52.436;13.346;2022-11-06T01:30:15;101395.00;;;10.00
15845;BMP180;50807;52.436;13.346;2022-11-06T01:30:47;101393.00;;;10.00
15845;BMP180;50807;52.436;13.346;2022-11-06T01:31:21;101386.00;;;10.00
15845;BMP180;50807;52.436;13.346;2022-11-06T01:31:52;101387.00;;;10.00
15845;BMP180;50807;52.436;13.346;2022-11-06T01:32:24;101393.00;;;10.00
15845;BMP180;50807;52.436;13.346;2022-11-06T01:32:54;101389.00;;;10.00
15845;BMP180;50807;52.436;13.346;2022-11-06T01:33:25;101392.00;;;10.00
15845;BMP180;50807;52.436;13.346;2022-11-06T01:33:58;101382.00;;;10.00
15845;BMP180;50807;52.436;13.346;2022-11-06T01:34:31;101389.00;;;10.00
15845;BMP180;50807;52.436;13.346;2022-11-06T01:35:01;101390.00;;;10.00
15845;BMP180;50807;52.436;13.346;2022-11-06T01:35:32;101389.00;;;10.00
15845;BMP180;50807;52.436;13.346;2022-11-06T01:36:07;101386.00;;;10.00
15845;BMP180;50807;52.436;13.346;2022-11-06T01:36:38;101389.00;;;10.00
15845;BMP180;50807;52.436;13.346;2022-11-06T01:37:09;101390.00;;;10.00
15845;BMP180;50807;52.436;13.346;2022-11-06T01:37:42;101392.00;;;10.00
15845;BMP180;50807;52.436;13.346;2022-11-06T01:38:13;101383.00;;;10.00
15845;BMP180;50807;52.436;13.346;2022-11-06T01:38:48;101387.00;;;10.00
15845;BMP180;50807;52.436;13.346;2022-11-06T01:39:20;101381.00;;;10.00
15845;BMP180;50807;52.436;13.346;2022-11-06T01:39:51;101380.00;;;10.00
15845;BMP180;50807;52.436;13.346;2022-11-06T01:40:22;101386.00;;;10.00
15845;BMP180;50807;52.436;13.346;2022-11-06T01:40:54;101386.00;;;10.00
15845;BMP180;50807;52.436;13.346;2022-11-06T01:41:29;101378.00;;;10.00
15845;BMP180;50807;52.436;13.346;2022-11-06T01:42:00;101383.00;;;10.00
15845;BMP180;50807;52.436;13.346;2022-11-06T01:42:32;101382.00;;;10.00
15845;BMP180;50807;52.436;13.346;2022-11-06T01:43:03;101379.00;;;10.00
15845;BMP180;50807;52.436;13.346;2022-11-06T01:43:47;101381.00;;;9.90
15845;BMP180;50807;52.436;13.346;2022-11-06T01:45:23;101390.00;;;9.60
15845;BMP180;50807;52.436;13.346;2022-11-06T01:45:56;101381.00;;;9.70
15845;BMP180;50807;52.436;13.346;2022-11-06T01:46:29;101368.00;;;9.80
15845;BMP180;50807;52.436;13.346;2022-11-06T01:47:02;101384.00;;;9.90
15845;BMP180;50807;52.436;13.346;2022-11-06T01:47:34;101385.00;;;9.90
15845;BMP180;50807;52.436;13.346;2022-11-06T01:48:05;101376.00;;;9.90
15845;BMP180;50807;52.436;13.346;2022-11-06T01:48:40;101380.00;;;9.90
15845;BMP180;50807;52.436;13.346;2022-11-06T01:49:15;101383.00;;;9.90
15845;BMP180;50807;52.436;13.346;2022-11-06T01:49:47;101375.00;;;9.90
15845;BMP180;50807;52.436;13.346;2022-11-06T01:50:20;101381.00;;;9.90
15845;BMP180;50807;52.436;13.346;2022-11-06T01:50:55;101377.00;;;9.90
15845;BMP180;50807;52.436;13.346;2022-11-06T01:51:31;101369.00;;;9.90
15845;BMP180;50807;52.436;13.346;2022-11-06T01:52:08;101363.00;;;9.90
15845;BMP180;50807;52.436;13.346;2022-11-06T01:52:41;101371.00;;;9.90
15845;BMP180;50807;52.436;13.346;2022-11-06T01:53:15;101370.00;;;9.90
15845;BMP180;50807;52.436;13.346;2022-11-06T01:53:47;101367.00;;;9.90
15845;BMP180;50807;52.436;13.346;2022-11-06T01:54:20;101361.00;;;9.90
15845;BMP180;50807;52.436;13.346;2022-11-06T01:54:57;101350.00;;;9.90
15845;BMP180;50807;52.436;13.346;2022-11-06T01:55:35;101361.00;;;9.80
15845;BMP180;50807;52.436;13.346;2022-11-06T01:56:11;101368.00;;;9.90
15845;BMP180;50807;52.436;13.346;2022-11-06T01:56:46;101351.00;;;9.80
15845;BMP180;50807;52.436;13.346;2022-11-06T01:57:20;101356.00;;;9.90
15845;BMP180;50807;52.436;13.346;2022-11-06T01:57:53;101367.00;;;9.90
15845;BMP180;50807;52.436;13.346;2022-11-06T01:58:30;101361.00;;;9.80
15845;BMP180;50807;52.436;13.346;2022-11-06T01:59:04;101366.00;;;9.90
15845;BMP180;50807;52.436;13.346;2022-11-06T01:59:44;101364.00;;;9.80
15845;BMP180;50807;52.436;13.346;2022-11-06T02:00:16;101351.00;;;9.90
15845;BMP180;50807;52.436;13.346;2022-11-06T02:00:48;101362.00;;;9.80
15845;BMP180;50807;52.436;13.346;2022-11-06T02:01:21;101357.00;;;9.90
15845;BMP180;50807;52.436;13.346;2022-11-06T02:01:52;101362.00;;;9.90
15845;BMP180;50807;52.436;13.346;2022-11-06T02:02:23;101360.00;;;9.90
15845;BMP180;50807;52.436;13.346;2022-11-06T02:02:54;101356.00;;;9.90
15845;BMP180;50807;52.436;13.346;2022-11-06T02:03:26;101352.00;;;9.90
15845;BMP180;50807;52.436;13.346;2022-11-06T02:04:04;101359.00;;;9.80
15845;BMP180;50807;52.436;13.346;2022-11-06T02:04:42;101357.00;;;9.80
15845;BMP180;50807;52.436;13.346;2022-11-06T02:05:14;101358.00;;;9.90
15845;BMP180;50807;52.436;13.346;2022-11-06T02:05:45;101355.00;;;9.90
15845;BMP180;50807;52.436;13.346;2022-11-06T02:06:17;101358.00;;;9.90
15845;BMP180;50807;52.436;13.346;2022-11-06T02:06:49;101356.00;;;9.90
15845;BMP180;50807;52.436;13.346;2022-11-06T02:07:20;101357.00;;;9.90
15845;BMP180;50807;52.436;13.346;2022-11-06T02:07:52;101363.00;;;9.90
15845;BMP180;50807;52.436;13.346;2022-11-06T02:08:25;101351.00;;;9.90
15845;BMP180;50807;52.436;13.346;2022-11-06T02:08:58;101358.00;;;9.90
15845;BMP180;50807;52.436;13.346;2022-11-06T02:09:30;101342.00;;;9.90
15845;BMP180;50807;52.436;13.346;2022-11-06T02:10:04;101350.00;;;9.90
15845;BMP180;50807;52.436;13.346;2022-11-06T02:10:36;101342.00;;;9.90
15845;BMP180;50807;52.436;13.346;2022-11-06T02:11:09;101350.00;;;9.90
15845;BMP180;50807;52.436;13.346;2022-11-06T02:11:43;101350.00;;;9.90
15845;BMP180;50807;52.436;13.346;2022-11-06T02:12:28;101345.00;;;9.80
15845;BMP180;50807;52.436;13.346;2022-11-06T02:13:29;101347.00;;;9.70
15845;BMP180;50807;52.436;13.346;2022-11-06T02:14:10;101348.00;;;9.70
15845;BMP180;50807;52.436;13.346;2022-11-06T02:14:55;101348.00;;;9.60
15845;BMP180;50807;52.436;13.346;2022-11-06T02:15:45;101355.00;;;9.60
15845;BMP180;50807;52.436;13.346;2022-11-06T02:16:25;101339.00;;;9.60
15845;BMP180;50807;52.436;13.346;2022-11-06T02:17:04;101338.00;;;9.60
15845;BMP180;50807;52.436;13.346;2022-11-06T02:17:55;101348.00;;;9.60
15845;BMP180;50807;52.436;13.346;2022-11-06T02:18:42;101342.00;;;9.60
15845;BMP180;50807;52.436;13.346;2022-11-06T02:19:38;101355.00;;;9.50
15845;BMP180;50807;52.436;13.346;2022-11-06T02:20:22;101347.00;;;9.60
15845;BMP180;50807;52.436;13.346;2022-11-06T02:21:30;101349.00;;;9.50
15845;BMP180;50807;52.436;13.346;2022-11-06T02:22:30;101349.00;;;9.50
15845;BMP180;50807;52.436;13.346;2022-11-06T02:25:48;101334.00;;;9.40
15845;BMP180;50807;52.436;13.346;2022-11-06T02:27:28;101340.00;;;9.50
15845;BMP180;50807;52.436;13.346;2022-11-06T02:28:08;101338.00;;;9.50
15845;BMP180;50807;52.436;13.346;2022-11-06T02:28:53;101333.00;;;9.50
15845;BMP180;50807;52.436;13.346;2022-11-06T02:29:30;101338.00;;;9.60
15845;BMP180;50807;52.436;13.346;2022-11-06T02:30:06;101338.00;;;9.60
15845;BMP180;50807;52.436;13.346;2022-11-06T02:30:43;101338.00;;;9.60
15845;BMP180;50807;52.436;13.346;2022-11-06T02:31:22;101319.00;;;9.60
15845;BMP180;50807;52.436;13.346;2022-11-06T02:31:58;101324.00;;;9.70
15845;BMP180;50807;52.436;13.346;2022-11-06T02:32:43;101331.00;;;9.60
15845;BMP180;50807;52.436;13.346;2022-11-06T02:33:20;101327.00;;;9.70
15845;BMP180;50807;52.436;13.346;2022-11-06T02:34:00;101333.00;;;9.70
15845;BMP180;50807;52.436;13.346;2022-11-06T02:34:35;101331.00;;;9.70
15845;BMP180;50807;52.436;13.346;2022-11-06T02:35:18;101321.00;;;9.70
15845;BMP180;50807;52.436;13.346;2022-11-06T02:35:57;101325.00;;;9.70
15845;BMP180;50807;52.436;13.346;2022-11-06T02:36:35;101329.00;;;9.70
15845;BMP180;50807;52.436;13.346;2022-11-06T02:37:12;101314.00;;;9.70
15845;BMP180;50807;52.436;13.346;2022-11-06T02:37:53;101309.00;;;9.70
15845;BMP180;50807;52.436;13.346;2022-11-06T02:38:32;101323.00;;;9.70
15845;BMP180;50807;52.436;13.346;2022-11-06T02:39:10;101323.00;;;9.70
15845;BMP180;50807;52.436;13.346;2022-11-06T02:39:45;101331.00;;;9.70
15845;BMP180;50807;52.436;13.346;2022-11-06T02:40:19;101327.00;;;9.80
15845;BMP180;50807;52.436;13.346;2022-11-06T02:40:56;101333.00;;;9.80
15845;BMP180;50807;52.436;13.346;2022-11-06T02:41:32;101333.00;;;9.80
15845;BMP180;50807;52.436;13.346;2022-11-06T02:42:09;101319.00;;;9.80
15845;BMP180;50807;52.436;13.346;2022-11-06T02:42:49;101317.00;;;9.70
15845;BMP180;50807;52.436;13.346;2022-11-06T02:43:29;101326.00;;;9.70
15845;BMP180;50807;52.436;13.346;2022-11-06T02:44:07;101329.00;;;9.70
15845;BMP180;50807;52.436;13.346;2022-11-06T02:44:42;101345.00;;;9.80
15845;BMP180;50807;52.436;13.346;2022-11-06T02:45:16;101343.00;;;9.80
15845;BMP180;50807;52.436;13.346;2022-11-06T02:45:55;101348.00;;;9.80
15845;BMP180;50807;52.436;13.346;2022-11-06T02:46:33;101343.00;;;9.80
15845;BMP180;50807;52.436;13.346;2022-11-06T02:47:09;101346.00;;;9.80
15845;BMP180;50807;52.436;13.346;2022-11-06T02:47:43;101340.00;;;9.80
15845;BMP180;50807;52.436;13.346;2022-11-06T02:48:23;101356.00;;;9.80
15845;BMP180;50807;52.436;13.346;2022-11-06T02:49:03;101326.00;;;9.80
15845;BMP180;50807;52.436;13.346;2022-11-06T02:49:42;101343.00;;;9.80
15845;BMP180;50807;52.436;13.346;2022-11-06T02:50:20;101337.00;;;9.80
15845;BMP180;50807;52.436;13.346;2022-11-06T02:50:56;101334.00;;;9.80
15845;BMP180;50807;52.436;13.346;2022-11-06T02:51:34;101332.00;;;9.80
15845;BMP180;50807;52.436;13.346;2022-11-06T02:52:11;101341.00;;;9.80
15845;BMP180;50807;52.436;13.346;2022-11-06T02:52:49;101323.00;;;9.80
15845;BMP180;50807;52.436;13.346;2022-11-06T02:53:25;101341.00;;;9.80
15845;BMP180;50807;52.436;13.346;2022-11-06T02:54:01;101339.00;;;9.80
15845;BMP180;50807;52.436;13.346;2022-11-06T02:54:37;101343.00;;;9.80
15845;BMP180;50807;52.436;13.346;2022-11-06T02:55:14;101342.00;;;9.80
15845;BMP180;50807;52.436;13.346;2022-11-06T02:55:50;101346.00;;;9.80
15845;BMP180;50807;52.436;13.346;2022-11-06T02:56:28;101343.00;;;9.80
15845;BMP180;50807;52.436;13.346;2022-11-06T02:57:07;101332.00;;;9.80
15845;BMP180;50807;52.436;13.346;2022-11-06T02:57:48;101336.00;;;9.80
15845;BMP180;50807;52.436;13.346;2022-11-06T02:58:30;101332.00;;;9.70
15845;BMP180;50807;52.436;13.346;2022-11-06T02:59:08;101344.00;;;9.80
15845;BMP180;50807;52.436;13.346;2022-11-06T02:59:48;101337.00;;;9.70
15845;BMP180;50807;52.436;13.346;2022-11-06T03:00:20;101331.00;;;9.80
15845;BMP180;50807;52.436;13.346;2022-11-06T03:01:00;101329.00;;;9.80
15845;BMP180;50807;52.436;13.346;2022-11-06T03:01:38;101338.00;;;9.80
15845;BMP180;50807;52.436;13.346;2022-11-06T03:02:17;101331.00;;;9.70
15845;BMP180;50807;52.436;13.346;2022-11-06T03:02:54;101332.00;;;9.70
15845;BMP180;50807;52.436;13.346;2022-11-06T03:03:31;101337.00;;;9.70
15845;BMP180;50807;52.436;13.346;2022-11-06T03:04:09;101320.00;;;9.80
15845;BMP180;50807;52.436;13.346;2022-11-06T03:04:48;101331.00;;;9.80
15845;BMP180;50807;52.436;13.346;2022-11-06T03:05:26;101335.00;;;9.70
15845;BMP180;50807;52.436;13.346;2022-11-06T03:06:03;101331.00;;;9.70
15845;BMP180;50807;52.436;13.346;2022-11-06T03:06:41;101318.00;;;9.70
15845;BMP180;50807;52.436;13.346;2022-11-06T03:07:20;101335.00;;;9.70
15845;BMP180;50807;52.436;13.346;2022-11-06T03:08:01;101330.00;;;9.70
15845;BMP180;50807;52.436;13.346;2022-11-06T03:08:38;101335.00;;;9.70
15845;BMP180;50807;52.436;13.346;2022-11-06T03:09:17;101327.00;;;9.70
15845;BMP180;50807;52.436;13.346;2022-11-06T03:09:48;101324.00;;;9.80
15845;BMP180;50807;52.436;13.346;2022-11-06T03:10:21;101330.00;;;9.80
15845;BMP180;50807;52.436;13.346;2022-11-06T03:11:05;101329.00;;;9.70
15845;BMP180;50807;52.436;13.346;2022-11-06T03:11:39;101333.00;;;9.80
15845;BMP180;50807;52.436;13.346;2022-11-06T03:12:20;101336.00;;;9.70
15845;BMP180;50807;52.436;13.346;2022-11-06T03:13:05;101341.00;;;9.70
15845;BMP180;50807;52.436;13.346;2022-11-06T03:13:47;101331.00;;;9.70
15845;BMP180;50807;52.436;13.346;2022-11-06T03:14:30;101322.00;;;9.70
15845;BMP180;50807;52.436;13.346;2022-11-06T03:15:15;101321.00;;;9.70
15845;BMP180;50807;52.436;13.346;2022-11-06T03:15:57;101332.00;;;9.70
15845;BMP180;50807;52.436;13.346;2022-11-06T03:16:46;101331.00;;;9.60
15845;BMP180;50807;52.436;13.346;2022-11-06T03:17:31;101330.00;;;9.70
15845;BMP180;50807;52.436;13.346;2022-11-06T03:18:12;101321.00;;;9.70
15845;BMP180;50807;52.436;13.346;2022-11-06T03:18:54;101328.00;;;9.70
15845;BMP180;50807;52.436;13.346;2022-11-06T03:19:31;101319.00;;;9.70
15845;BMP180;50807;52.436;13.346;2022-11-06T03:20:17;101329.00;;;9.70
15845;BMP180;50807;52.436;13.346;2022-11-06T03:20:59;101324.00;;;9.70